createdAt,value
2018-04-29T00:00:10.987Z,0.00
2018-04-29T00:02:03.834Z,0.00
2018-04-29T00:03:03.812Z,0.00
2018-04-29T00:04:56.671Z,0.00
2018-04-29T00:05:56.644Z,0.00
2018-04-29T00:07:49.488Z,0.00
2018-04-29T00:08:49.467Z,0.00
2018-04-29T00:10:42.324Z,0.00
2018-04-29T00:11:42.292Z,0.00
2018-04-29T00:13:35.143Z,0.00
2018-04-29T00:14:35.119Z,0.00
2018-04-29T00:16:27.979Z,0.00
2018-04-29T00:17:27.944Z,0.00
2018-04-29T00:19:20.794Z,0.00
2018-04-29T00:20:20.772Z,0.00
2018-04-29T00:22:13.633Z,0.00
2018-04-29T00:23:13.599Z,0.00
2018-04-29T00:25:06.446Z,0.00
2018-04-29T00:26:06.425Z,0.00
2018-04-29T00:27:59.291Z,0.00
2018-04-29T00:28:59.257Z,0.00
2018-04-29T00:30:52.102Z,0.00
2018-04-29T00:31:52.080Z,0.00
2018-04-29T00:33:44.940Z,0.00
2018-04-29T00:34:44.909Z,0.00
2018-04-29T00:36:37.753Z,0.00
2018-04-29T00:37:37.733Z,0.00
2018-04-29T00:39:30.593Z,0.00
2018-04-29T00:40:30.562Z,0.00
2018-04-29T00:42:23.984Z,0.00
2018-04-29T00:43:23.388Z,0.00
2018-04-29T00:45:16.249Z,0.00
2018-04-29T00:46:16.209Z,0.00
2018-04-29T00:48:09.056Z,0.00
2018-04-29T00:49:09.035Z,0.00
2018-04-29T00:51:01.898Z,0.00
2018-04-29T00:52:01.868Z,0.00
2018-04-29T00:53:54.713Z,0.00
2018-04-29T00:54:54.695Z,0.00
2018-04-29T00:56:47.551Z,0.00
2018-04-29T00:57:47.520Z,0.00
2018-04-29T00:59:40.363Z,0.00
2018-04-29T01:00:40.341Z,0.00
2018-04-29T01:02:33.205Z,0.00
2018-04-29T01:03:33.170Z,0.00
2018-04-29T01:05:26.016Z,0.00
2018-04-29T01:06:25.996Z,0.00
2018-04-29T01:08:18.855Z,0.00
2018-04-29T01:09:18.820Z,0.00
2018-04-29T01:11:11.670Z,0.00
2018-04-29T01:12:11.645Z,0.00
2018-04-29T01:14:04.504Z,0.00
2018-04-29T01:15:04.472Z,0.00
2018-04-29T01:16:57.317Z,0.00
2018-04-29T01:17:57.296Z,0.00
2018-04-29T01:19:50.154Z,0.00
2018-04-29T01:20:50.121Z,0.00
2018-04-29T01:22:42.973Z,0.00
2018-04-29T01:23:42.948Z,0.00
2018-04-29T01:25:35.810Z,0.00
2018-04-29T01:26:35.773Z,0.00
2018-04-29T01:28:28.616Z,0.00
2018-04-29T01:29:28.598Z,0.00
2018-04-29T01:31:21.458Z,0.00
2018-04-29T01:32:21.421Z,0.00
2018-04-29T01:34:14.265Z,0.00
2018-04-29T01:35:14.249Z,0.00
2018-04-29T01:37:07.108Z,0.00
2018-04-29T01:38:07.069Z,0.00
2018-04-29T01:39:59.915Z,0.00
2018-04-29T01:40:59.892Z,0.00
2018-04-29T01:42:52.751Z,0.00
2018-04-29T01:43:52.720Z,0.00
2018-04-29T01:45:45.566Z,0.00
2018-04-29T01:46:45.545Z,0.00
2018-04-29T01:48:38.402Z,0.00
2018-04-29T01:49:38.367Z,0.00
2018-04-29T01:51:31.235Z,0.00
2018-04-29T01:52:31.194Z,0.00
2018-04-29T01:54:24.055Z,0.00
2018-04-29T01:55:24.018Z,0.00
2018-04-29T01:57:16.863Z,0.00
2018-04-29T01:58:16.843Z,0.00
2018-04-29T02:00:09.704Z,0.00
2018-04-29T02:01:09.663Z,0.00
2018-04-29T02:03:02.530Z,0.00
2018-04-29T02:04:02.494Z,0.00
2018-04-29T02:05:55.356Z,0.00
2018-04-29T02:06:55.320Z,0.00
2018-04-29T02:08:48.171Z,0.00
2018-04-29T02:09:48.143Z,0.00
2018-04-29T02:11:41.003Z,0.00
2018-04-29T02:12:40.966Z,0.00
2018-04-29T02:14:33.824Z,0.00
2018-04-29T02:15:33.796Z,0.00
2018-04-29T02:17:26.655Z,0.00
2018-04-29T02:18:26.618Z,0.00
2018-04-29T02:20:19.462Z,0.00
2018-04-29T02:21:19.439Z,0.00
2018-04-29T02:23:12.300Z,0.00
2018-04-29T02:24:12.264Z,0.00
2018-04-29T02:26:05.116Z,0.00
2018-04-29T02:27:05.092Z,0.00
2018-04-29T02:28:57.956Z,0.00
2018-04-29T02:29:57.920Z,0.00
2018-04-29T02:31:50.768Z,0.00
2018-04-29T02:32:50.748Z,0.00
2018-04-29T02:34:43.606Z,0.00
2018-04-29T02:35:43.569Z,0.00
2018-04-29T02:37:36.415Z,0.00
2018-04-29T02:38:36.393Z,0.00
2018-04-29T02:40:29.254Z,0.00
2018-04-29T02:41:29.218Z,0.00
2018-04-29T02:43:22.070Z,0.00
2018-04-29T02:44:22.041Z,0.00
2018-04-29T02:46:14.901Z,0.00
2018-04-29T02:47:14.866Z,0.00
2018-04-29T02:49:07.713Z,0.00
2018-04-29T02:50:07.689Z,0.00
2018-04-29T02:52:00.548Z,0.00
2018-04-29T02:53:00.513Z,0.00
2018-04-29T02:54:53.360Z,0.00
2018-04-29T02:55:53.343Z,0.00
2018-04-29T02:57:46.195Z,0.00
2018-04-29T02:58:46.161Z,0.00
2018-04-29T03:00:39.009Z,0.00
2018-04-29T03:01:38.996Z,0.00
2018-04-29T03:03:31.846Z,0.00
2018-04-29T03:04:31.812Z,0.00
2018-04-29T03:06:24.662Z,0.00
2018-04-29T03:07:24.640Z,0.00
2018-04-29T03:09:17.499Z,0.00
2018-04-29T03:10:17.464Z,0.00
2018-04-29T03:12:10.312Z,0.00
2018-04-29T03:13:10.289Z,0.00
2018-04-29T03:15:03.153Z,0.00
2018-04-29T03:16:03.114Z,0.00
2018-04-29T03:17:55.960Z,0.00
2018-04-29T03:18:55.941Z,0.00
2018-04-29T03:20:48.799Z,0.00
2018-04-29T03:21:48.765Z,0.00
2018-04-29T03:23:41.615Z,0.00
2018-04-29T03:24:41.592Z,0.00
2018-04-29T03:26:34.508Z,0.00
2018-04-29T03:27:34.428Z,0.00
2018-04-29T03:29:27.273Z,0.00
2018-04-29T03:30:27.249Z,0.00
2018-04-29T03:32:20.109Z,0.00
2018-04-29T03:33:20.074Z,0.00
2018-04-29T03:35:12.921Z,0.00
2018-04-29T03:36:12.898Z,0.00
2018-04-29T03:38:05.837Z,0.00
2018-04-29T03:39:05.730Z,0.00
2018-04-29T03:40:58.578Z,0.00
2018-04-29T03:41:58.555Z,0.00
2018-04-29T03:43:51.417Z,0.00
2018-04-29T03:44:51.381Z,0.00
2018-04-29T03:46:44.225Z,0.00
2018-04-29T03:47:44.205Z,0.00
2018-04-29T03:49:37.072Z,0.00
2018-04-29T03:50:37.030Z,0.00
2018-04-29T03:52:29.874Z,0.00
2018-04-29T03:53:29.855Z,0.00
2018-04-29T03:55:22.712Z,0.00
2018-04-29T03:56:22.677Z,0.00
2018-04-29T03:58:15.526Z,0.00
2018-04-29T03:59:15.505Z,0.00
2018-04-29T04:01:08.381Z,0.00
2018-04-29T04:02:08.346Z,0.00
2018-04-29T04:04:01.192Z,0.00
2018-04-29T04:05:01.170Z,0.00
2018-04-29T04:06:54.029Z,5.63
2018-04-29T04:07:53.995Z,5.63
2018-04-29T04:09:46.916Z,5.63
2018-04-29T04:10:46.819Z,5.63
2018-04-29T04:12:39.756Z,5.63
2018-04-29T04:13:39.648Z,5.63
2018-04-29T04:15:32.500Z,11.25
2018-04-29T04:16:32.473Z,11.25
2018-04-29T04:18:25.332Z,11.25
2018-04-29T04:19:25.302Z,11.25
2018-04-29T04:21:18.151Z,16.88
2018-04-29T04:22:18.129Z,16.88
2018-04-29T04:24:10.987Z,16.88
2018-04-29T04:25:10.952Z,16.88
2018-04-29T04:27:03.797Z,22.50
2018-04-29T04:28:03.776Z,22.50
2018-04-29T04:29:56.634Z,28.13
2018-04-29T04:30:56.599Z,28.13
2018-04-29T04:32:49.451Z,28.13
2018-04-29T04:33:49.430Z,33.75
2018-04-29T04:35:42.288Z,39.38
2018-04-29T04:36:42.254Z,45.00
2018-04-29T04:38:35.102Z,50.63
2018-04-29T04:39:35.079Z,50.63
2018-04-29T04:41:27.937Z,56.25
2018-04-29T04:42:27.905Z,67.50
2018-04-29T04:44:20.768Z,84.38
2018-04-29T04:45:20.732Z,90.00
2018-04-29T04:47:13.598Z,95.63
2018-04-29T04:48:13.568Z,101.25
2018-04-29T04:50:06.414Z,106.88
2018-04-29T04:51:06.386Z,106.88
2018-04-29T04:52:59.304Z,118.13
2018-04-29T04:53:59.255Z,118.13
2018-04-29T04:55:52.102Z,129.38
2018-04-29T04:56:52.082Z,129.38
2018-04-29T04:58:44.945Z,135.00
2018-04-29T04:59:44.919Z,140.63
2018-04-29T05:01:37.767Z,146.25
2018-04-29T05:02:37.750Z,95.63
2018-04-29T05:04:30.608Z,123.75
2018-04-29T05:05:30.577Z,168.75
2018-04-29T05:07:23.514Z,146.25
2018-04-29T05:08:23.413Z,140.63
2018-04-29T05:10:16.273Z,146.25
2018-04-29T05:11:16.244Z,163.13
2018-04-29T05:13:09.094Z,185.63
2018-04-29T05:14:09.076Z,157.50
2018-04-29T05:16:01.945Z,230.63
2018-04-29T05:17:01.907Z,230.63
2018-04-29T05:18:54.763Z,135.00
2018-04-29T05:19:54.745Z,185.63
2018-04-29T05:21:47.618Z,163.13
2018-04-29T05:22:47.582Z,247.50
2018-04-29T05:24:40.436Z,151.88
2018-04-29T05:25:40.425Z,151.88
2018-04-29T05:27:33.281Z,163.13
2018-04-29T05:28:33.254Z,168.75
2018-04-29T05:30:26.103Z,303.75
2018-04-29T05:31:26.088Z,247.50
2018-04-29T05:33:18.948Z,326.25
2018-04-29T05:34:18.918Z,241.88
2018-04-29T05:36:11.776Z,185.63
2018-04-29T05:37:11.758Z,196.88
2018-04-29T05:39:04.626Z,202.50
2018-04-29T05:40:04.595Z,185.63
2018-04-29T05:41:57.450Z,270.00
2018-04-29T05:42:57.430Z,174.38
2018-04-29T05:44:50.296Z,146.25
2018-04-29T05:45:50.355Z,146.25
2018-04-29T05:47:43.117Z,174.38
2018-04-29T05:48:43.099Z,528.75
2018-04-29T05:50:35.965Z,613.13
2018-04-29T05:51:35.935Z,748.13
2018-04-29T05:53:28.786Z,905.63
2018-04-29T05:54:28.772Z,798.75
2018-04-29T05:56:21.643Z,961.88
2018-04-29T05:57:21.613Z,1091.25
2018-04-29T05:59:14.468Z,1040.63
2018-04-29T06:00:14.451Z,888.75
2018-04-29T06:02:07.323Z,500.63
2018-04-29T06:03:07.295Z,686.25
2018-04-29T06:05:00.154Z,455.63
2018-04-29T06:06:00.181Z,298.13
2018-04-29T06:07:53.010Z,303.75
2018-04-29T06:08:52.983Z,376.88
2018-04-29T06:10:45.844Z,376.88
2018-04-29T06:11:45.824Z,545.63
2018-04-29T06:13:38.695Z,365.63
2018-04-29T06:14:38.674Z,495.00
2018-04-29T06:16:31.526Z,466.88
2018-04-29T06:17:31.511Z,331.88
2018-04-29T06:19:24.380Z,382.50
2018-04-29T06:20:24.416Z,630.00
2018-04-29T06:22:17.211Z,421.88
2018-04-29T06:23:17.200Z,258.75
2018-04-29T06:25:10.070Z,607.50
2018-04-29T06:26:10.142Z,686.25
2018-04-29T06:28:02.901Z,568.13
2018-04-29T06:29:02.886Z,483.75
2018-04-29T06:30:55.761Z,1310.63
2018-04-29T06:31:55.832Z,1603.13
2018-04-29T06:33:49.584Z,1805.63
2018-04-29T06:34:49.578Z,1816.88
2018-04-29T06:36:42.447Z,1929.38
2018-04-29T06:37:42.423Z,450.00
2018-04-29T06:39:35.287Z,365.63
2018-04-29T06:40:35.285Z,1822.50
2018-04-29T06:42:28.151Z,309.38
2018-04-29T06:43:28.132Z,1816.88
2018-04-29T06:45:20.990Z,1687.50
2018-04-29T06:46:20.975Z,1693.13
2018-04-29T06:48:13.930Z,1518.75
2018-04-29T06:49:13.832Z,1434.38
2018-04-29T06:51:06.696Z,1125.00
2018-04-29T06:52:06.684Z,995.63
2018-04-29T06:53:59.566Z,838.13
2018-04-29T06:54:59.541Z,714.38
2018-04-29T06:56:52.414Z,630.00
2018-04-29T06:57:52.401Z,624.38
2018-04-29T06:59:45.286Z,613.13
2018-04-29T07:00:45.308Z,624.38
2018-04-29T07:02:38.130Z,281.25
2018-04-29T07:03:38.116Z,298.13
2018-04-29T07:05:31.002Z,528.75
2018-04-29T07:06:30.983Z,601.88
2018-04-29T07:08:23.852Z,579.38
2018-04-29T07:09:23.849Z,590.63
2018-04-29T07:11:16.726Z,585.00
2018-04-29T07:12:16.706Z,275.63
2018-04-29T07:14:09.593Z,292.50
2018-04-29T07:15:09.566Z,281.25
2018-04-29T07:17:02.447Z,292.50
2018-04-29T07:18:02.424Z,534.38
2018-04-29T07:19:55.302Z,326.25
2018-04-29T07:20:55.289Z,326.25
2018-04-29T07:22:48.168Z,641.25
2018-04-29T07:23:48.145Z,652.50
2018-04-29T07:25:41.014Z,343.13
2018-04-29T07:26:41.002Z,281.25
2018-04-29T07:28:33.885Z,579.38
2018-04-29T07:29:33.860Z,601.88
2018-04-29T07:31:26.730Z,585.00
2018-04-29T07:32:26.716Z,585.00
2018-04-29T07:34:19.598Z,585.00
2018-04-29T07:35:19.579Z,585.00
2018-04-29T07:37:12.448Z,573.75
2018-04-29T07:38:12.438Z,562.50
2018-04-29T07:40:05.333Z,562.50
2018-04-29T07:41:05.304Z,562.50
2018-04-29T07:42:58.176Z,562.50
2018-04-29T07:43:58.167Z,562.50
2018-04-29T07:45:51.065Z,562.50
2018-04-29T07:46:51.039Z,551.25
2018-04-29T07:48:43.916Z,556.88
2018-04-29T07:49:43.907Z,551.25
2018-04-29T07:51:36.799Z,556.88
2018-04-29T07:52:36.883Z,545.63
2018-04-29T07:54:29.660Z,568.13
2018-04-29T07:55:29.654Z,562.50
2018-04-29T07:57:22.546Z,466.88
2018-04-29T07:58:22.528Z,562.50
2018-04-29T08:00:15.413Z,360.00
2018-04-29T08:01:15.406Z,303.75
2018-04-29T08:03:08.297Z,275.63
2018-04-29T08:04:08.278Z,315.00
2018-04-29T08:06:01.153Z,388.13
2018-04-29T08:07:01.145Z,506.25
2018-04-29T08:08:54.034Z,421.88
2018-04-29T08:09:54.012Z,489.38
2018-04-29T08:11:46.889Z,466.88
2018-04-29T08:12:46.884Z,455.63
2018-04-29T08:14:39.768Z,444.38
2018-04-29T08:15:39.762Z,438.75
2018-04-29T08:17:32.632Z,438.75
2018-04-29T08:18:32.624Z,433.13
2018-04-29T08:20:25.514Z,433.13
2018-04-29T08:21:25.495Z,421.88
2018-04-29T08:23:18.373Z,421.88
2018-04-29T08:24:18.372Z,410.63
2018-04-29T08:26:11.282Z,388.13
2018-04-29T08:27:11.243Z,382.50
2018-04-29T08:29:04.125Z,393.75
2018-04-29T08:30:04.152Z,421.88
2018-04-29T08:31:57.023Z,416.25
2018-04-29T08:32:57.005Z,410.63
2018-04-29T08:34:49.884Z,410.63
2018-04-29T08:35:49.878Z,405.00
2018-04-29T08:37:42.771Z,399.38
2018-04-29T08:38:42.753Z,399.38
2018-04-29T08:40:35.639Z,393.75
2018-04-29T08:41:35.632Z,388.13
2018-04-29T08:43:28.525Z,388.13
2018-04-29T08:44:28.510Z,382.50
2018-04-29T08:46:21.394Z,376.88
2018-04-29T08:47:21.392Z,371.25
2018-04-29T08:49:14.286Z,365.63
2018-04-29T08:50:14.354Z,360.00
2018-04-29T08:52:07.152Z,354.38
2018-04-29T08:53:07.151Z,360.00
2018-04-29T08:55:00.112Z,354.38
2018-04-29T08:56:00.060Z,354.38
2018-04-29T08:57:52.919Z,354.38
2018-04-29T08:58:52.914Z,354.38
2018-04-29T09:00:45.809Z,348.75
2018-04-29T09:01:45.793Z,348.75
2018-04-29T09:03:38.720Z,343.13
2018-04-29T09:04:38.676Z,343.13
2018-04-29T09:06:31.590Z,343.13
2018-04-29T09:07:31.573Z,337.50
2018-04-29T09:09:24.461Z,337.50
2018-04-29T09:10:24.455Z,337.50
2018-04-29T09:12:17.360Z,331.88
2018-04-29T09:13:17.347Z,331.88
2018-04-29T09:15:10.236Z,326.25
2018-04-29T09:16:10.232Z,326.25
2018-04-29T09:18:03.174Z,326.25
2018-04-29T09:19:03.155Z,326.25
2018-04-29T09:20:56.060Z,320.63
2018-04-29T09:21:56.054Z,320.63
2018-04-29T09:23:48.949Z,315.00
2018-04-29T09:24:48.959Z,315.00
2018-04-29T09:26:41.824Z,315.00
2018-04-29T09:27:41.825Z,315.00
2018-04-29T09:29:34.721Z,315.00
2018-04-29T09:30:34.706Z,309.38
2018-04-29T09:32:27.601Z,309.38
2018-04-29T09:33:27.598Z,303.75
2018-04-29T09:35:20.498Z,303.75
2018-04-29T09:36:20.483Z,303.75
2018-04-29T09:38:13.468Z,298.13
2018-04-29T09:39:13.369Z,298.13
2018-04-29T09:41:06.269Z,298.13
2018-04-29T09:42:06.255Z,298.13
2018-04-29T09:43:59.137Z,298.13
2018-04-29T09:44:59.134Z,298.13
2018-04-29T09:46:52.034Z,292.50
2018-04-29T09:47:52.017Z,292.50
2018-04-29T09:49:44.901Z,286.88
2018-04-29T09:50:44.898Z,281.25
2018-04-29T09:52:37.844Z,303.75
2018-04-29T09:53:37.828Z,309.38
2018-04-29T09:55:30.710Z,292.50
2018-04-29T09:56:30.706Z,286.88
2018-04-29T09:58:23.607Z,281.25
2018-04-29T09:59:23.591Z,275.63
2018-04-29T10:01:16.556Z,275.63
2018-04-29T10:02:16.476Z,281.25
2018-04-29T10:04:09.376Z,281.25
2018-04-29T10:05:09.362Z,281.25
2018-04-29T10:07:02.246Z,270.00
2018-04-29T10:08:02.240Z,270.00
2018-04-29T10:09:55.136Z,281.25
2018-04-29T10:10:55.118Z,286.88
2018-04-29T10:12:48.047Z,286.88
2018-04-29T10:13:48.044Z,286.88
2018-04-29T10:15:40.941Z,281.25
2018-04-29T10:16:40.923Z,275.63
2018-04-29T10:18:33.811Z,275.63
2018-04-29T10:19:33.805Z,264.38
2018-04-29T10:21:26.766Z,264.38
2018-04-29T10:22:26.690Z,275.63
2018-04-29T10:24:19.573Z,275.63
2018-04-29T10:25:19.570Z,281.25
2018-04-29T10:27:12.475Z,275.63
2018-04-29T10:28:12.450Z,270.00
2018-04-29T10:30:05.335Z,270.00
2018-04-29T10:31:05.333Z,264.38
2018-04-29T10:32:58.274Z,264.38
2018-04-29T10:33:58.212Z,264.38
2018-04-29T10:35:51.095Z,258.75
2018-04-29T10:36:51.092Z,258.75
2018-04-29T10:38:43.994Z,253.13
2018-04-29T10:39:43.986Z,253.13
2018-04-29T10:41:36.860Z,253.13
2018-04-29T10:42:36.857Z,253.13
2018-04-29T10:44:29.755Z,253.13
2018-04-29T10:45:29.736Z,247.50
2018-04-29T10:47:22.672Z,247.50
2018-04-29T10:48:22.621Z,247.50
2018-04-29T10:50:15.526Z,247.50
2018-04-29T10:51:15.505Z,247.50
2018-04-29T10:53:08.390Z,247.50
2018-04-29T10:54:08.388Z,247.50
2018-04-29T10:56:01.286Z,247.50
2018-04-29T10:57:01.268Z,241.88
2018-04-29T10:58:54.157Z,241.88
2018-04-29T10:59:54.150Z,241.88
2018-04-29T11:01:47.048Z,236.25
2018-04-29T11:02:47.035Z,236.25
2018-04-29T11:04:39.916Z,236.25
2018-04-29T11:05:39.914Z,236.25
2018-04-29T11:07:32.809Z,241.88
2018-04-29T11:08:32.804Z,236.25
2018-04-29T11:10:25.677Z,241.88
2018-04-29T11:11:25.674Z,236.25
2018-04-29T11:13:18.571Z,236.25
2018-04-29T11:14:18.554Z,236.25
2018-04-29T11:16:11.439Z,236.25
2018-04-29T11:17:11.435Z,236.25
2018-04-29T11:19:04.331Z,236.25
2018-04-29T11:20:04.313Z,236.25
2018-04-29T11:21:57.198Z,236.25
2018-04-29T11:22:57.196Z,230.63
2018-04-29T11:24:50.092Z,230.63
2018-04-29T11:25:50.075Z,230.63
2018-04-29T11:27:42.953Z,230.63
2018-04-29T11:28:43.032Z,230.63
2018-04-29T11:30:35.843Z,230.63
2018-04-29T11:31:35.826Z,225.00
2018-04-29T11:33:28.710Z,225.00
2018-04-29T11:34:28.707Z,225.00
2018-04-29T11:36:21.599Z,225.00
2018-04-29T11:37:21.583Z,225.00
2018-04-29T11:39:14.462Z,225.00
2018-04-29T11:40:14.464Z,225.00
2018-04-29T11:42:07.354Z,225.00
2018-04-29T11:43:07.347Z,225.00
2018-04-29T11:45:00.220Z,225.00
2018-04-29T11:46:00.216Z,225.00
2018-04-29T11:47:53.112Z,225.00
2018-04-29T11:48:53.096Z,225.00
2018-04-29T11:50:45.977Z,219.38
2018-04-29T11:51:45.970Z,219.38
2018-04-29T11:53:38.868Z,219.38
2018-04-29T11:54:38.849Z,219.38
2018-04-29T11:56:31.734Z,219.38
2018-04-29T11:57:31.728Z,219.38
2018-04-29T11:59:24.636Z,219.38
2018-04-29T12:00:24.604Z,219.38
2018-04-29T12:02:17.479Z,219.38
2018-04-29T12:03:17.475Z,219.38
2018-04-29T12:05:10.373Z,213.75
2018-04-29T12:06:10.345Z,213.75
2018-04-29T12:08:03.234Z,213.75
2018-04-29T12:09:03.228Z,213.75
2018-04-29T12:10:56.124Z,213.75
2018-04-29T12:11:56.106Z,225.00
2018-04-29T12:13:48.983Z,225.00
2018-04-29T12:14:48.975Z,225.00
2018-04-29T12:16:41.867Z,213.75
2018-04-29T12:17:41.847Z,208.13
2018-04-29T12:19:34.722Z,208.13
2018-04-29T12:20:34.716Z,202.50
2018-04-29T12:22:27.609Z,225.00
2018-04-29T12:23:27.588Z,225.00
2018-04-29T12:25:20.469Z,225.00
2018-04-29T12:26:20.461Z,225.00
2018-04-29T12:28:13.355Z,219.38
2018-04-29T12:29:13.330Z,219.38
2018-04-29T12:31:06.211Z,219.38
2018-04-29T12:32:06.203Z,219.38
2018-04-29T12:33:59.100Z,208.13
2018-04-29T12:34:59.075Z,213.75
2018-04-29T12:36:51.958Z,213.75
2018-04-29T12:37:51.949Z,219.38
2018-04-29T12:39:44.842Z,219.38
2018-04-29T12:40:44.822Z,213.75
2018-04-29T12:42:37.698Z,219.38
2018-04-29T12:43:37.693Z,219.38
2018-04-29T12:45:30.587Z,208.13
2018-04-29T12:46:30.565Z,213.75
2018-04-29T12:48:23.445Z,202.50
2018-04-29T12:49:23.439Z,196.88
2018-04-29T12:51:16.413Z,219.38
2018-04-29T12:52:16.441Z,225.00
2018-04-29T12:54:09.882Z,225.00
2018-04-29T12:55:09.299Z,230.63
2018-04-29T12:57:02.292Z,230.63
2018-04-29T12:58:02.270Z,236.25
2018-04-29T12:59:55.169Z,225.00
2018-04-29T13:00:55.159Z,230.63
2018-04-29T13:02:48.050Z,230.63
2018-04-29T13:03:48.031Z,219.38
2018-04-29T13:05:40.918Z,202.50
2018-04-29T13:06:40.899Z,213.75
2018-04-29T13:08:33.791Z,219.38
2018-04-29T13:09:33.770Z,225.00
2018-04-29T13:11:26.643Z,230.63
2018-04-29T13:12:26.635Z,213.75
2018-04-29T13:14:19.526Z,208.13
2018-04-29T13:15:19.506Z,208.13
2018-04-29T13:17:12.384Z,208.13
2018-04-29T13:18:12.376Z,202.50
2018-04-29T13:20:05.265Z,208.13
2018-04-29T13:21:05.243Z,213.75
2018-04-29T13:22:58.122Z,208.13
2018-04-29T13:23:58.112Z,208.13
2018-04-29T13:25:51.002Z,213.75
2018-04-29T13:26:50.982Z,219.38
2018-04-29T13:28:43.858Z,241.88
2018-04-29T13:29:43.849Z,241.88
2018-04-29T13:31:36.736Z,241.88
2018-04-29T13:32:36.713Z,253.13
2018-04-29T13:34:29.597Z,258.75
2018-04-29T13:35:29.598Z,258.75
2018-04-29T13:37:22.472Z,264.38
2018-04-29T13:38:22.451Z,258.75
2018-04-29T13:40:15.326Z,264.38
2018-04-29T13:41:15.325Z,241.88
2018-04-29T13:43:08.224Z,247.50
2018-04-29T13:44:08.200Z,241.88
2018-04-29T13:46:01.074Z,230.63
2018-04-29T13:47:01.064Z,230.63
2018-04-29T13:48:53.956Z,225.00
2018-04-29T13:49:53.934Z,230.63
2018-04-29T13:51:46.810Z,241.88
2018-04-29T13:52:46.802Z,247.50
2018-04-29T13:54:39.689Z,230.63
2018-04-29T13:55:39.667Z,236.25
2018-04-29T13:57:32.539Z,247.50
2018-04-29T13:58:32.530Z,253.13
2018-04-29T14:00:25.423Z,236.25
2018-04-29T14:01:25.401Z,241.88
2018-04-29T14:03:18.282Z,230.63
2018-04-29T14:04:18.264Z,219.38
2018-04-29T14:06:11.154Z,213.75
2018-04-29T14:07:11.135Z,202.50
2018-04-29T14:09:04.010Z,202.50
2018-04-29T14:10:04.001Z,202.50
2018-04-29T14:11:56.891Z,202.50
2018-04-29T14:12:56.869Z,202.50
2018-04-29T14:14:49.751Z,196.88
2018-04-29T14:15:49.742Z,196.88
2018-04-29T14:17:42.628Z,208.13
2018-04-29T14:18:42.610Z,208.13
2018-04-29T14:20:35.478Z,202.50
2018-04-29T14:21:35.469Z,202.50
2018-04-29T14:23:28.429Z,213.75
2018-04-29T14:24:28.336Z,213.75
2018-04-29T14:26:21.205Z,219.38
2018-04-29T14:27:21.196Z,225.00
2018-04-29T14:29:14.097Z,241.88
2018-04-29T14:30:14.060Z,247.50
2018-04-29T14:32:06.940Z,258.75
2018-04-29T14:33:06.931Z,253.13
2018-04-29T14:34:59.819Z,247.50
2018-04-29T14:35:59.804Z,247.50
2018-04-29T14:37:52.675Z,230.63
2018-04-29T14:38:52.667Z,230.63
2018-04-29T14:40:45.551Z,236.25
2018-04-29T14:41:45.534Z,230.63
2018-04-29T14:43:38.397Z,213.75
2018-04-29T14:44:38.388Z,202.50
2018-04-29T14:46:31.275Z,180.00
2018-04-29T14:47:31.251Z,174.38
2018-04-29T14:49:24.132Z,163.13
2018-04-29T14:50:24.114Z,151.88
2018-04-29T14:52:17.007Z,146.25
2018-04-29T14:53:16.980Z,140.63
2018-04-29T14:55:09.856Z,135.00
2018-04-29T14:56:09.842Z,129.38
2018-04-29T14:58:02.729Z,123.75
2018-04-29T14:59:02.704Z,123.75
2018-04-29T15:00:55.575Z,123.75
2018-04-29T15:01:55.569Z,123.75
2018-04-29T15:03:48.449Z,129.38
2018-04-29T15:04:48.425Z,135.00
2018-04-29T15:06:41.296Z,140.63
2018-04-29T15:07:41.285Z,146.25
2018-04-29T15:09:34.167Z,151.88
2018-04-29T15:10:34.210Z,157.50
2018-04-29T15:12:27.014Z,163.13
2018-04-29T15:13:27.006Z,163.13
2018-04-29T15:15:19.885Z,163.13
2018-04-29T15:16:19.862Z,163.13
2018-04-29T15:18:12.733Z,157.50
2018-04-29T15:19:12.722Z,163.13
2018-04-29T15:21:05.673Z,168.75
2018-04-29T15:22:05.589Z,174.38
2018-04-29T15:23:58.460Z,185.63
2018-04-29T15:24:58.448Z,185.63
2018-04-29T15:26:51.329Z,191.25
2018-04-29T15:27:51.307Z,196.88
2018-04-29T15:29:44.186Z,202.50
2018-04-29T15:30:44.176Z,202.50
2018-04-29T15:32:37.060Z,202.50
2018-04-29T15:33:37.035Z,196.88
2018-04-29T15:35:29.983Z,185.63
2018-04-29T15:36:29.895Z,180.00
2018-04-29T15:38:22.791Z,163.13
2018-04-29T15:39:22.767Z,157.50
2018-04-29T15:41:15.637Z,151.88
2018-04-29T15:42:15.628Z,146.25
2018-04-29T15:44:08.510Z,146.25
2018-04-29T15:45:08.487Z,146.25
2018-04-29T15:47:01.363Z,140.63
2018-04-29T15:48:01.354Z,140.63
2018-04-29T15:49:54.237Z,140.63
2018-04-29T15:50:54.208Z,135.00
2018-04-29T15:52:47.089Z,135.00
2018-04-29T15:53:47.069Z,135.00
2018-04-29T15:55:39.951Z,146.25
2018-04-29T15:56:39.928Z,151.88
2018-04-29T15:58:32.801Z,163.13
2018-04-29T15:59:32.840Z,168.75
2018-04-29T16:01:25.679Z,180.00
2018-04-29T16:02:25.648Z,180.00
2018-04-29T16:04:18.519Z,185.63
2018-04-29T16:05:18.505Z,185.63
2018-04-29T16:07:11.386Z,180.00
2018-04-29T16:08:11.363Z,185.63
2018-04-29T16:10:04.234Z,185.63
2018-04-29T16:11:04.221Z,185.63
2018-04-29T16:12:57.103Z,168.75
2018-04-29T16:13:57.081Z,163.13
2018-04-29T16:15:49.949Z,151.88
2018-04-29T16:16:49.940Z,146.25
2018-04-29T16:18:42.833Z,146.25
2018-04-29T16:19:42.807Z,146.25
2018-04-29T16:21:35.677Z,151.88
2018-04-29T16:22:35.666Z,146.25
2018-04-29T16:24:28.556Z,146.25
2018-04-29T16:25:28.532Z,146.25
2018-04-29T16:27:21.405Z,146.25
2018-04-29T16:28:21.389Z,146.25
2018-04-29T16:30:14.275Z,140.63
2018-04-29T16:31:14.251Z,129.38
2018-04-29T16:33:07.120Z,118.13
2018-04-29T16:34:07.112Z,112.50
2018-04-29T16:35:59.987Z,112.50
2018-04-29T16:36:59.968Z,106.88
2018-04-29T16:38:52.841Z,106.88
2018-04-29T16:39:52.826Z,101.25
2018-04-29T16:41:45.723Z,101.25
2018-04-29T16:42:45.692Z,106.88
2018-04-29T16:44:38.555Z,112.50
2018-04-29T16:45:38.543Z,118.13
2018-04-29T16:47:31.427Z,123.75
2018-04-29T16:48:31.404Z,123.75
2018-04-29T16:50:24.273Z,118.13
2018-04-29T16:51:24.261Z,118.13
2018-04-29T16:53:17.146Z,118.13
2018-04-29T16:54:17.126Z,112.50
2018-04-29T16:56:10.066Z,106.88
2018-04-29T16:57:09.982Z,106.88
2018-04-29T16:59:02.862Z,106.88
2018-04-29T17:00:02.840Z,106.88
2018-04-29T17:01:55.710Z,106.88
2018-04-29T17:02:55.700Z,106.88
2018-04-29T17:04:48.579Z,106.88
2018-04-29T17:05:48.558Z,106.88
2018-04-29T17:07:41.423Z,101.25
2018-04-29T17:08:41.412Z,101.25
2018-04-29T17:10:34.313Z,101.25
2018-04-29T17:11:34.286Z,95.63
2018-04-29T17:13:27.155Z,90.00
2018-04-29T17:14:27.142Z,84.38
2018-04-29T17:16:20.032Z,78.75
2018-04-29T17:17:20.014Z,73.13
2018-04-29T17:19:12.890Z,67.50
2018-04-29T17:20:12.882Z,67.50
2018-04-29T17:22:05.758Z,61.88
2018-04-29T17:23:05.734Z,61.88
2018-04-29T17:24:58.603Z,56.25
2018-04-29T17:25:58.591Z,56.25
2018-04-29T17:27:51.477Z,50.63
2018-04-29T17:28:51.451Z,50.63
2018-04-29T17:30:44.329Z,50.63
2018-04-29T17:31:44.308Z,50.63
2018-04-29T17:33:37.196Z,50.63
2018-04-29T17:34:37.172Z,45.00
2018-04-29T17:36:30.061Z,45.00
2018-04-29T17:37:30.025Z,45.00
2018-04-29T17:39:22.901Z,45.00
2018-04-29T17:40:22.877Z,45.00
2018-04-29T17:42:15.742Z,45.00
2018-04-29T17:43:15.731Z,45.00
2018-04-29T17:45:08.611Z,45.00
2018-04-29T17:46:08.584Z,45.00
2018-04-29T17:48:01.453Z,39.38
2018-04-29T17:49:01.447Z,39.38
2018-04-29T17:50:54.321Z,39.38
2018-04-29T17:51:54.297Z,33.75
2018-04-29T17:53:47.167Z,39.38
2018-04-29T17:54:47.152Z,39.38
2018-04-29T17:56:40.031Z,39.38
2018-04-29T17:57:40.006Z,33.75
2018-04-29T17:59:32.873Z,33.75
2018-04-29T18:00:32.858Z,33.75
2018-04-29T18:02:25.736Z,33.75
2018-04-29T18:03:25.712Z,33.75
2018-04-29T18:05:18.576Z,28.13
2018-04-29T18:06:18.586Z,28.13
2018-04-29T18:08:11.441Z,28.13
2018-04-29T18:09:11.414Z,28.13
2018-04-29T18:11:04.283Z,22.50
2018-04-29T18:12:04.273Z,22.50
2018-04-29T18:13:57.147Z,16.88
2018-04-29T18:14:57.125Z,16.88
2018-04-29T18:16:49.985Z,16.88